Time;durP1;ratioP1;P1;durP2;ratioP2;P2;SDS_P1;SDS_P2;PMS_P1;PMS_P2;Temp;Humidity;BMP_temperature;BMP_pressure;BME280_temperature;BME280_humidity;BME280_pressure;Samples;Min_cycle;Max_cycle;Signal;HPM_P1;HPM_P2
2022/01/11 00:00:41;;;;;;;187.15;32.00;;;0.70;99.90;;;;;;4990815;28;20033;-82
2022/01/11 00:03:08;;;;;;;160.60;31.23;;;0.70;99.90;;;;;;4991940;28;20064;-82
2022/01/11 00:05:40;;;;;;;59.47;24.25;;;0.70;99.90;;;;;;4964110;28;20499;-82
2022/01/11 00:08:08;;;;;;;138.45;28.35;;;0.70;99.90;;;;;;4962942;28;20041;-82
2022/01/11 00:10:46;;;;;;;80.30;24.55;;;2.00;99.90;;;;;;5002156;28;20041;-82
2022/01/11 00:13:13;;;;;;;126.47;26.25;;;0.60;99.90;;;;;;4990774;28;20065;-81
2022/01/11 00:15:39;;;;;;;195.40;33.90;;;0.60;99.90;;;;;;4994350;28;20056;-82
2022/01/11 00:18:05;;;;;;;106.85;25.52;;;2.00;99.90;;;;;;4981805;28;20478;-82
2022/01/11 00:20:31;;;;;;;262.50;38.03;;;0.60;99.90;;;;;;4987148;28;20062;-82
2022/01/11 00:24:26;;;;;;;77.65;24.15;;;0.40;99.90;;;;;;5005474;28;20603;-82
2022/01/11 00:25:45;;;;;;;94.22;25.58;;;0.60;99.90;;;;;;5005737;28;20486;-82
2022/01/11 00:28:13;;;;;;;52.15;22.05;;;0.60;99.90;;;;;;4989375;28;20192;-82
2022/01/11 00:30:41;;;;;;;80.90;24.25;;;2.60;99.90;;;;;;4987736;28;20046;-81
2022/01/11 00:33:12;;;;;;;45.97;20.48;;;0.50;99.90;;;;;;4988651;28;20038;-81
2022/01/11 00:35:41;;;;;;;43.60;21.67;;;0.00;99.90;;;;;;4987070;28;20487;-81
2022/01/11 00:38:13;;;;;;;48.13;20.33;;;0.50;99.90;;;;;;4988826;28;20080;-81
2022/01/11 00:40:38;;;;;;;47.78;22.10;;;0.40;99.90;;;;;;4973175;28;20124;-81
2022/01/11 00:43:05;;;;;;;46.95;22.33;;;0.40;99.90;;;;;;4988678;28;20455;-81
2022/01/11 00:45:31;;;;;;;40.67;20.48;;;0.40;99.90;;;;;;4989297;28;20041;-83
2022/01/11 00:47:57;;;;;;;45.17;21.02;;;0.40;99.90;;;;;;4991518;28;20042;-81
2022/01/11 00:50:24;;;;;;;51.58;22.15;;;0.30;99.90;;;;;;5010162;28;20474;-81
2022/01/11 00:52:50;;;;;;;40.45;20.40;;;1.90;99.90;;;;;;4992686;28;20061;-81
2022/01/11 00:55:17;;;;;;;48.50;21.27;;;0.30;99.90;;;;;;4991170;28;20038;-82
2022/01/11 00:57:43;;;;;;;40.83;20.92;;;0.20;99.90;;;;;;4992368;28;20491;-81
2022/01/11 01:00:11;;;;;;;40.47;20.92;;;1.00;99.90;;;;;;4976968;28;20365;-81
2022/01/11 01:02:41;;;;;;;71.43;23.10;;;0.20;99.90;;;;;;4992526;28;20046;-81
2022/01/11 01:05:08;;;;;;;50.33;21.88;;;0.30;99.90;;;;;;4991908;28;20056;-81
2022/01/11 01:07:34;;;;;;;31.85;18.05;;;0.20;99.90;;;;;;4958875;28;20081;-81
2022/01/11 01:10:07;;;;;;;35.63;19.45;;;0.20;99.90;;;;;;5009255;28;20038;-81
2022/01/11 01:12:36;;;;;;;33.28;19.77;;;-0.10;99.90;;;;;;4991631;28;20396;-81
2022/01/11 01:15:03;;;;;;;32.17;18.83;;;0.20;99.90;;;;;;5006109;28;20052;-81
2022/01/11 01:17:29;;;;;;;33.55;19.42;;;0.20;99.90;;;;;;4976270;28;20486;-81
2022/01/11 01:19:54;;;;;;;33.67;19.60;;;1.90;99.90;;;;;;4991627;28;20100;-81
2022/01/11 01:22:20;;;;;;;34.08;19.60;;;0.10;99.90;;;;;;4975829;28;20045;-81
2022/01/11 01:24:47;;;;;;;50.35;22.42;;;0.10;99.90;;;;;;4990828;28;20079;-80
2022/01/11 01:27:14;;;;;;;34.97;19.25;;;0.10;99.90;;;;;;5004329;28;20038;-81
2022/01/11 01:29:40;;;;;;;37.13;20.17;;;0.10;99.90;;;;;;4992016;28;20517;-81
2022/01/11 01:32:10;;;;;;;35.10;19.55;;;2.30;99.90;;;;;;5008577;28;20042;-81
2022/01/11 01:34:36;;;;;;;37.45;20.50;;;0.20;99.90;;;;;;4976177;28;20038;-81
2022/01/11 01:37:03;;;;;;;32.22;18.88;;;1.80;99.90;;;;;;4990353;28;20037;-81
2022/01/11 01:39:29;;;;;;;33.72;18.73;;;0.20;99.90;;;;;;5008439;28;20038;-80
2022/01/11 01:41:55;;;;;;;36.90;19.63;;;0.20;99.90;;;;;;4975761;28;20076;-81
2022/01/11 01:44:22;;;;;;;42.85;20.95;;;0.20;99.90;;;;;;4975708;28;20471;-80
2022/01/11 01:46:47;;;;;;;77.85;25.13;;;0.20;99.90;;;;;;4990861;28;20128;-80
2022/01/11 01:49:19;;;;;;;56.63;21.63;;;2.20;99.90;;;;;;4991481;28;20124;-81
2022/01/11 01:51:46;;;;;;;41.70;19.98;;;0.20;99.90;;;;;;4992714;28;20042;-80
2022/01/11 01:54:13;;;;;;;36.35;19.85;;;0.20;99.90;;;;;;4989348;28;20044;-80
2022/01/11 01:56:39;;;;;;;68.88;21.30;;;0.30;99.90;;;;;;4991240;28;20045;-81
2022/01/11 01:59:05;;;;;;;39.97;20.17;;;0.30;99.90;;;;;;4990896;28;20034;-81
2022/01/11 02:01:38;;;;;;;64.57;23.73;;;0.30;99.90;;;;;;4973824;28;20050;-81
2022/01/11 02:04:04;;;;;;;109.10;24.50;;;0.20;99.90;;;;;;4961587;28;20081;-80
2022/01/11 02:06:30;;;;;;;35.42;20.17;;;2.30;99.90;;;;;;4975123;28;20049;-80
2022/01/11 02:08:56;;;;;;;43.05;20.05;;;0.30;99.90;;;;;;4980578;28;20093;-81
2022/01/11 02:11:24;;;;;;;53.60;22.08;;;0.30;99.90;;;;;;4973910;28;20053;-80
2022/01/11 02:13:51;;;;;;;46.92;20.70;;;0.20;99.90;;;;;;5006396;28;20104;-80
2022/01/11 02:16:21;;;;;;;58.75;23.08;;;0.20;99.90;;;;;;5008974;28;20100;-81
2022/01/11 02:18:47;;;;;;;33.33;19.02;;;0.20;99.90;;;;;;5004658;28;20054;-80
2022/01/11 02:21:13;;;;;;;44.42;20.27;;;1.60;99.90;;;;;;5007421;28;20075;-80
2022/01/11 02:23:40;;;;;;;78.13;22.85;;;1.80;99.90;;;;;;4975032;28;20045;-81
2022/01/11 02:26:05;;;;;;;39.17;19.30;;;0.20;99.90;;;;;;4991331;28;20042;-81
2022/01/11 02:28:32;;;;;;;38.05;19.45;;;-0.20;99.90;;;;;;5006854;28;20095;-80
2022/01/11 02:31:00;;;;;;;36.05;18.25;;;0.20;99.90;;;;;;4990649;28;20038;-80
2022/01/11 02:33:33;;;;;;;43.78;19.05;;;0.20;99.90;;;;;;4990171;28;20434;-80
2022/01/11 02:36:01;;;;;;;44.63;19.95;;;0.20;99.90;;;;;;4991227;28;20030;-80
2022/01/11 02:38:27;;;;;;;39.05;18.95;;;0.20;99.90;;;;;;5005058;28;20046;-80
2022/01/11 02:40:53;;;;;;;46.92;18.40;;;0.10;99.90;;;;;;4972658;28;20064;-80
2022/01/11 02:43:18;;;;;;;35.92;17.90;;;0.90;99.90;;;;;;4990788;28;20041;-81
2022/01/11 02:45:44;;;;;;;40.15;18.48;;;0.20;99.90;;;;;;4974906;28;20052;-80
2022/01/11 02:48:10;;;;;;;38.22;19.05;;;0.20;99.90;;;;;;4987939;28;20100;-80
2022/01/11 02:50:36;;;;;;;42.53;18.92;;;0.10;99.90;;;;;;4990661;28;20053;-80
2022/01/11 02:53:03;;;;;;;83.88;21.20;;;0.20;99.90;;;;;;5006800;28;20051;-80
2022/01/11 02:55:29;;;;;;;39.97;19.23;;;0.20;99.90;;;;;;5005665;28;20026;-80
2022/01/11 02:57:55;;;;;;;47.50;20.20;;;0.10;99.90;;;;;;4973286;28;20085;-80
2022/01/11 03:00:23;;;;;;;47.20;19.23;;;0.20;99.90;;;;;;4990660;28;20029;-80
2022/01/11 03:02:49;;;;;;;41.65;20.02;;;0.20;99.90;;;;;;4990225;28;20112;-80
2022/01/11 03:05:15;;;;;;;50.63;20.45;;;0.20;99.90;;;;;;4990071;28;20383;-81
2022/01/11 03:07:42;;;;;;;67.95;22.83;;;0.30;99.90;;;;;;4971845;28;20085;-80
2022/01/11 03:12:43;;;;;;;56.15;21.52;;;0.20;99.90;;;;;;5003145;28;20069;-80
2022/01/11 03:15:11;;;;;;;61.15;21.45;;;0.40;99.90;;;;;;4974415;28;20038;-80
2022/01/11 03:17:38;;;;;;;62.40;21.27;;;0.20;99.90;;;;;;4974495;28;20490;-80
2022/01/11 03:20:06;;;;;;;94.65;22.88;;;0.30;99.90;;;;;;4990813;28;20056;-80
2022/01/11 03:22:32;;;;;;;45.20;21.42;;;0.20;99.90;;;;;;4994669;28;20148;-81
2022/01/11 03:24:58;;;;;;;48.63;20.80;;;1.60;99.90;;;;;;4977089;28;20120;-80
2022/01/11 03:27:24;;;;;;;69.15;22.83;;;1.10;99.90;;;;;;4981611;28;20041;-80
2022/01/11 03:29:51;;;;;;;61.20;23.17;;;0.50;99.90;;;;;;4982167;28;20038;-80
2022/01/11 03:32:19;;;;;;;72.57;23.85;;;0.20;99.90;;;;;;4992671;28;20410;-81
2022/01/11 03:34:46;;;;;;;83.72;23.65;;;0.30;99.90;;;;;;4993408;28;20048;-80
2022/01/11 03:37:17;;;;;;;64.53;22.88;;;1.70;99.90;;;;;;4993299;28;20065;-80
2022/01/11 03:39:47;;;;;;;90.10;26.15;;;0.60;99.90;;;;;;5008495;28;20044;-80
2022/01/11 03:42:13;;;;;;;56.67;22.92;;;0.50;99.90;;;;;;4994415;28;20033;-81
2022/01/11 03:44:39;;;;;;;55.20;23.83;;;0.80;99.90;;;;;;5007552;28;20410;-80
2022/01/11 03:47:05;;;;;;;55.20;23.13;;;1.80;99.90;;;;;;4974335;28;20033;-80
2022/01/11 03:49:31;;;;;;;53.15;22.85;;;0.30;99.90;;;;;;4977303;28;20041;-80
2022/01/11 03:51:57;;;;;;;92.80;26.08;;;0.20;99.90;;;;;;4992826;28;20060;-80
2022/01/11 03:54:26;;;;;;;87.10;24.88;;;0.90;99.90;;;;;;4993748;28;20045;-80
2022/01/11 03:56:52;;;;;;;53.92;22.58;;;0.30;99.90;;;;;;4977382;28;20506;-80
2022/01/11 03:59:19;;;;;;;69.57;24.67;;;1.80;99.90;;;;;;5009503;28;20394;-80
2022/01/11 04:01:45;;;;;;;46.33;20.77;;;0.30;99.90;;;;;;4982472;28;21226;-80
2022/01/11 04:04:11;;;;;;;67.72;23.77;;;0.90;99.90;;;;;;5008721;28;20047;-80
2022/01/11 04:06:38;;;;;;;50.13;22.35;;;0.30;99.90;;;;;;4978543;28;20117;-80
2022/01/11 04:09:07;;;;;;;68.07;24.55;;;1.90;99.90;;;;;;4992229;28;20040;-80
2022/01/11 04:11:33;;;;;;;69.38;22.92;;;1.80;99.90;;;;;;4991285;28;20046;-80
2022/01/11 04:13:59;;;;;;;61.40;22.67;;;0.30;99.90;;;;;;4993165;28;20034;-81
2022/01/11 04:16:25;;;;;;;43.25;21.23;;;0.30;99.90;;;;;;4981905;28;20383;-80
2022/01/11 04:18:51;;;;;;;67.72;25.70;;;0.30;99.90;;;;;;4993298;28;20040;-80
2022/01/11 04:21:16;;;;;;;50.08;22.00;;;0.30;99.90;;;;;;4991886;28;20053;-80
2022/01/11 04:23:42;;;;;;;55.20;22.60;;;0.30;99.90;;;;;;4992845;28;20056;-80
2022/01/11 04:26:08;;;;;;;74.22;25.15;;;0.20;99.90;;;;;;4995011;28;20042;-81
2022/01/11 04:28:34;;;;;;;55.13;22.55;;;0.30;99.90;;;;;;4977061;28;20045;-80
2022/01/11 04:31:00;;;;;;;57.25;22.65;;;0.30;99.90;;;;;;4977869;28;20041;-80
2022/01/11 04:33:31;;;;;;;53.15;22.52;;;0.30;99.90;;;;;;4974485;28;20093;-81
2022/01/11 04:35:58;;;;;;;50.13;22.90;;;0.30;99.90;;;;;;4993622;28;20052;-80
2022/01/11 04:38:30;;;;;;;49.83;23.48;;;1.90;99.90;;;;;;4992590;28;20044;-80
2022/01/11 04:40:57;;;;;;;42.65;20.58;;;0.10;99.90;;;;;;4992129;28;20572;-80
2022/01/11 04:43:23;;;;;;;48.42;22.05;;;0.30;99.90;;;;;;4991050;28;20037;-81
2022/01/11 04:45:48;;;;;;;59.22;24.15;;;0.60;99.90;;;;;;4976953;28;20121;-80
2022/01/11 04:48:15;;;;;;;48.08;21.75;;;0.30;99.90;;;;;;4975263;28;20048;-80
2022/01/11 04:50:41;;;;;;;42.60;20.70;;;0.40;99.90;;;;;;4990495;28;20227;-80
2022/01/11 04:53:07;;;;;;;39.22;19.35;;;0.30;99.90;;;;;;4974152;28;20046;-80
2022/01/11 04:55:33;;;;;;;40.55;19.75;;;0.30;99.90;;;;;;4992947;28;20034;-80
2022/01/11 04:57:59;;;;;;;50.80;22.27;;;0.30;99.90;;;;;;4975871;28;20048;-80
2022/01/11 05:00:25;;;;;;;39.58;20.08;;;1.80;99.90;;;;;;4975912;28;20046;-80
2022/01/11 05:02:51;;;;;;;40.08;20.40;;;0.30;99.90;;;;;;4992074;28;20439;-80
2022/01/11 05:05:17;;;;;;;48.90;21.48;;;0.30;99.90;;;;;;4974062;28;20080;-81
2022/01/11 05:07:44;;;;;;;46.70;21.70;;;0.30;99.90;;;;;;4973829;28;20037;-80
2022/01/11 05:10:10;;;;;;;46.90;21.27;;;1.00;99.90;;;;;;4988194;28;20034;-80
2022/01/11 05:12:38;;;;;;;45.75;21.63;;;0.30;99.90;;;;;;4991691;28;20522;-81
2022/01/11 05:15:07;;;;;;;41.03;20.40;;;2.40;99.90;;;;;;4991028;28;20045;-80
2022/01/11 05:17:32;;;;;;;46.85;21.85;;;0.30;99.90;;;;;;5008049;28;20046;-80
2022/01/11 05:19:58;;;;;;;48.67;22.60;;;0.20;99.90;;;;;;4979006;28;20045;-80
2022/01/11 05:22:24;;;;;;;41.33;20.10;;;0.30;99.90;;;;;;4967187;28;20065;-80
2022/01/11 05:24:49;;;;;;;43.20;20.52;;;0.50;99.90;;;;;;4995662;28;20108;-81
2022/01/11 05:27:15;;;;;;;40.85;20.02;;;0.30;99.90;;;;;;4977464;28;20045;-80
2022/01/11 05:29:41;;;;;;;40.30;20.38;;;0.30;99.90;;;;;;4988563;28;20048;-80
2022/01/11 05:32:07;;;;;;;45.03;21.55;;;0.30;99.90;;;;;;4962027;28;20151;-79
2022/01/11 05:34:33;;;;;;;47.05;21.38;;;0.30;99.90;;;;;;4999343;28;20045;-80
2022/01/11 05:36:58;;;;;;;39.60;20.20;;;0.30;99.90;;;;;;4982744;28;20075;-80
2022/01/11 05:39:24;;;;;;;42.30;20.63;;;0.50;99.90;;;;;;4994775;28;20072;-80
2022/01/11 05:41:50;;;;;;;48.55;21.85;;;1.60;99.90;;;;;;4995557;28;20399;-80
2022/01/11 05:44:16;;;;;;;41.00;21.02;;;0.20;99.90;;;;;;4978736;28;20061;-80
2022/01/11 05:46:42;;;;;;;47.10;20.80;;;1.10;99.90;;;;;;4985013;28;20116;-80
2022/01/11 05:49:08;;;;;;;42.25;19.92;;;1.80;99.90;;;;;;4982194;28;20056;-81
2022/01/11 05:51:33;;;;;;;42.20;20.70;;;0.30;99.90;;;;;;4998996;28;20053;-80
2022/01/11 05:53:59;;;;;;;44.72;21.55;;;0.30;99.90;;;;;;4978651;28;20034;-80
2022/01/11 05:56:25;;;;;;;44.42;20.27;;;0.20;99.90;;;;;;4984745;28;20044;-80
2022/01/11 05:58:52;;;;;;;42.35;20.65;;;0.30;99.90;;;;;;4995685;28;20037;-80
2022/01/11 06:01:18;;;;;;;39.15;19.52;;;0.70;99.90;;;;;;5012623;28;20073;-80
2022/01/11 06:03:44;;;;;;;44.08;20.40;;;0.30;99.90;;;;;;4979157;28;20029;-80
2022/01/11 06:06:10;;;;;;;48.70;22.42;;;0.30;99.90;;;;;;4977685;28;20038;-81
2022/01/11 06:08:36;;;;;;;45.22;20.30;;;0.90;99.90;;;;;;4993069;28;20056;-80
2022/01/11 06:11:03;;;;;;;40.97;20.73;;;1.20;99.90;;;;;;4990842;28;20041;-80
2022/01/11 06:13:28;;;;;;;45.55;22.17;;;0.20;99.90;;;;;;4995597;28;20038;-81
2022/01/11 06:15:54;;;;;;;49.75;21.95;;;0.30;99.90;;;;;;4962171;28;20056;-81
2022/01/11 06:18:20;;;;;;;51.50;22.10;;;0.30;99.90;;;;;;4994349;28;20099;-81
2022/01/11 06:20:46;;;;;;;67.82;25.20;;;0.30;99.90;;;;;;4977992;28;20049;-81
2022/01/11 06:23:11;;;;;;;56.67;25.00;;;0.30;99.90;;;;;;4995826;28;20045;-81
2022/01/11 06:25:37;;;;;;;52.10;23.05;;;0.30;99.90;;;;;;4981308;28;20068;-81
2022/01/11 06:28:04;;;;;;;48.15;22.92;;;0.30;99.90;;;;;;4977415;28;20038;-81
2022/01/11 06:30:29;;;;;;;47.42;21.77;;;0.30;99.90;;;;;;4994167;28;20037;-80
2022/01/11 06:32:56;;;;;;;49.85;21.75;;;2.30;99.90;;;;;;4978104;28;20040;-81
2022/01/11 06:35:23;;;;;;;58.42;23.73;;;0.30;99.90;;;;;;4993835;28;20076;-81
2022/01/11 06:37:50;;;;;;;53.15;23.23;;;0.30;99.90;;;;;;4993202;28;20377;-80
2022/01/11 06:40:18;;;;;;;46.40;21.13;;;1.70;99.90;;;;;;4956740;28;20103;-81
2022/01/11 06:42:48;;;;;;;51.50;23.08;;;0.30;99.90;;;;;;4993810;28;20037;-80
2022/01/11 06:45:15;;;;;;;53.95;23.48;;;0.20;99.90;;;;;;4974460;28;20041;-81
2022/01/11 06:47:41;;;;;;;52.97;23.00;;;1.00;99.90;;;;;;4979000;28;20042;-80
2022/01/11 06:50:08;;;;;;;50.65;22.27;;;0.70;99.90;;;;;;4999417;28;20501;-81
2022/01/11 06:52:35;;;;;;;55.13;23.40;;;0.30;99.90;;;;;;4963646;28;20045;-81
2022/01/11 06:55:00;;;;;;;51.72;24.20;;;0.20;99.90;;;;;;4978078;28;20041;-81
2022/01/11 06:57:28;;;;;;;50.63;23.73;;;0.20;99.90;;;;;;5005996;28;20039;-81
2022/01/11 06:59:54;;;;;;;56.65;23.98;;;0.20;99.90;;;;;;4985462;28;20040;-81
2022/01/11 07:02:20;;;;;;;47.45;21.90;;;0.30;99.90;;;;;;4994016;28;20041;-81
2022/01/11 07:04:46;;;;;;;52.33;23.52;;;0.30;99.90;;;;;;4977747;28;20038;-81
2022/01/11 07:07:11;;;;;;;53.03;24.45;;;0.20;99.90;;;;;;4994214;28;20037;-81
2022/01/11 07:09:37;;;;;;;48.80;23.40;;;0.20;99.90;;;;;;4996043;28;20045;-81
2022/01/11 07:12:04;;;;;;;53.08;23.98;;;2.20;99.90;;;;;;4988651;28;20551;-81
2022/01/11 07:14:30;;;;;;;52.15;23.83;;;0.30;99.90;;;;;;4988492;28;20038;-81
2022/01/11 07:16:56;;;;;;;56.03;25.45;;;0.30;99.90;;;;;;4994919;28;20108;-82
2022/01/11 07:19:22;;;;;;;59.05;25.35;;;0.30;99.90;;;;;;4971771;28;20185;-82
2022/01/11 07:21:48;;;;;;;58.10;24.98;;;0.30;99.90;;;;;;5007447;28;20485;-81
2022/01/11 07:24:15;;;;;;;54.67;24.70;;;0.30;99.90;;;;;;4974302;28;20042;-81
2022/01/11 07:26:42;;;;;;;55.08;25.33;;;0.30;99.90;;;;;;4992155;28;20390;-82
2022/01/11 07:29:08;;;;;;;70.80;27.40;;;0.70;99.90;;;;;;4987022;28;20479;-81
2022/01/11 07:31:37;;;;;;;63.08;25.75;;;0.40;99.90;;;;;;4975303;28;20125;-82
2022/01/11 07:34:06;;;;;;;64.85;26.88;;;0.30;99.90;;;;;;4971753;28;20041;-81
2022/01/11 07:36:32;;;;;;;61.10;25.27;;;0.30;99.90;;;;;;4990331;28;20081;-80
2022/01/11 07:38:58;;;;;;;70.15;27.10;;;1.80;99.90;;;;;;4959424;28;20065;-81
2022/01/11 07:41:24;;;;;;;58.20;24.35;;;0.30;99.90;;;;;;4973468;28;20049;-81
2022/01/11 07:43:50;;;;;;;65.35;26.92;;;0.20;99.90;;;;;;4990200;28;20034;-81
2022/01/11 07:46:16;;;;;;;61.22;26.17;;;0.30;99.90;;;;;;4986610;28;20056;-81
2022/01/11 07:48:44;;;;;;;70.40;28.60;;;0.60;99.90;;;;;;4988191;28;20045;-82
2022/01/11 07:51:10;;;;;;;68.70;27.42;;;0.40;99.90;;;;;;5004978;28;20048;-81
2022/01/11 07:53:36;;;;;;;57.35;25.48;;;0.40;99.90;;;;;;4990523;28;20044;-80
2022/01/11 07:56:03;;;;;;;57.40;25.55;;;0.40;99.90;;;;;;5007585;28;20038;-81
2022/01/11 07:58:29;;;;;;;62.55;28.13;;;0.40;99.90;;;;;;4977812;28;20128;-81
2022/01/11 08:00:55;;;;;;;60.03;26.92;;;0.40;99.90;;;;;;4962167;28;20111;-81
2022/01/11 08:03:21;;;;;;;56.65;25.70;;;;;;;;;;4994276;28;20219;-81
2022/01/11 08:05:47;;;;;;;66.57;27.25;;;0.50;99.90;;;;;;4993043;28;20033;-81
2022/01/11 08:08:13;;;;;;;59.80;26.27;;;0.50;99.90;;;;;;4994315;28;20095;-81
2022/01/11 08:10:38;;;;;;;61.67;26.20;;;0.50;99.90;;;;;;4993513;28;20080;-81
2022/01/11 08:13:09;;;;;;;61.40;27.60;;;1.80;99.90;;;;;;4992101;28;20037;-81
2022/01/11 08:15:35;;;;;;;55.22;24.40;;;2.50;99.90;;;;;;4994001;28;20042;-81
2022/01/11 08:18:01;;;;;;;59.08;25.65;;;1.20;99.90;;;;;;4992515;28;20113;-80
2022/01/11 08:20:27;;;;;;;54.67;24.58;;;0.60;99.90;;;;;;4992432;28;20150;-81
2022/01/11 08:22:54;;;;;;;56.85;25.25;;;1.40;99.90;;;;;;4990422;28;20046;-81
2022/01/11 08:25:20;;;;;;;59.63;25.17;;;0.60;99.90;;;;;;4990215;28;20502;-81
2022/01/11 08:27:46;;;;;;;52.90;25.13;;;2.00;99.90;;;;;;4994377;28;20092;-82
2022/01/11 08:30:12;;;;;;;56.13;25.20;;;0.70;99.90;;;;;;4992806;28;20611;-80
2022/01/11 08:32:39;;;;;;;59.30;26.27;;;0.80;99.90;;;;;;4989839;28;20125;-82
2022/01/11 08:35:06;;;;;;;55.85;25.00;;;2.00;99.90;;;;;;4990150;28;20045;-82
2022/01/11 08:37:32;;;;;;;58.03;24.67;;;0.80;99.90;;;;;;5008893;28;20117;-81
2022/01/11 08:39:58;;;;;;;58.83;26.20;;;0.80;99.90;;;;;;4993922;28;20125;-81
2022/01/11 08:42:27;;;;;;;59.05;24.73;;;0.90;99.90;;;;;;4971148;28;20042;-81
2022/01/11 08:44:53;;;;;;;57.42;24.02;;;1.20;99.90;;;;;;4991814;28;20046;-81
2022/01/11 08:47:20;;;;;;;50.20;23.90;;;0.90;99.90;;;;;;4959058;28;20064;-81
2022/01/11 08:49:46;;;;;;;46.58;22.50;;;2.40;99.90;;;;;;4994366;28;20034;-82
2022/01/11 08:52:13;;;;;;;50.42;23.65;;;1.40;99.90;;;;;;5008691;28;20117;-82
2022/01/11 08:54:39;;;;;;;52.97;23.50;;;2.40;99.90;;;;;;4993135;28;20045;-82
2022/01/11 08:57:06;;;;;;;54.78;22.35;;;1.00;99.90;;;;;;5009564;28;20038;-81
2022/01/11 08:59:32;;;;;;;50.85;22.88;;;2.50;99.90;;;;;;4993538;28;20491;-81
2022/01/11 09:02:01;;;;;;;49.28;21.63;;;2.70;99.90;;;;;;4991653;28;20046;-80
2022/01/11 09:04:27;;;;;;;43.65;21.33;;;1.00;99.90;;;;;;4993577;28;20053;-81
2022/01/11 09:06:57;;;;;;;43.97;20.98;;;1.00;99.90;;;;;;4993548;28;20038;-81
2022/01/11 09:09:24;;;;;;;46.65;20.60;;;1.00;99.90;;;;;;4989796;28;20041;-80
2022/01/11 09:11:51;;;;;;;45.38;22.60;;;0.20;99.90;;;;;;4967113;28;20069;-80
2022/01/11 09:14:17;;;;;;;49.47;22.05;;;1.00;99.90;;;;;;4978844;28;20043;-81
2022/01/11 09:16:43;;;;;;;48.97;21.80;;;2.20;99.90;;;;;;4983588;28;20064;-81
2022/01/11 09:19:09;;;;;;;50.17;21.88;;;2.50;99.90;;;;;;5007367;28;20053;-80
2022/01/11 09:21:35;;;;;;;48.88;21.60;;;1.10;99.90;;;;;;4974449;28;20065;-81
2022/01/11 09:24:02;;;;;;;39.58;19.58;;;1.00;99.90;;;;;;4990792;28;20399;-81
2022/01/11 09:26:28;;;;;;;45.72;20.80;;;1.00;99.90;;;;;;4993384;28;20100;-80
2022/01/11 09:28:53;;;;;;;41.03;20.13;;;1.10;99.90;;;;;;4961252;28;20143;-81
2022/01/11 09:31:19;;;;;;;42.50;19.75;;;1.10;99.90;;;;;;4961684;28;20072;-81
2022/01/11 09:33:45;;;;;;;40.53;19.02;;;1.10;99.90;;;;;;4961249;28;20038;-81
2022/01/11 09:36:11;;;;;;;39.35;18.38;;;0.40;99.90;;;;;;4961123;28;20455;-81
2022/01/11 09:38:36;;;;;;;43.72;19.73;;;2.90;99.90;;;;;;4974206;28;20136;-81
2022/01/11 09:41:03;;;;;;;41.00;19.27;;;2.20;99.90;;;;;;5002544;28;20153;-81
2022/01/11 09:43:29;;;;;;;38.60;17.70;;;3.10;99.90;;;;;;4961903;28;20157;-81
2022/01/11 09:45:56;;;;;;;39.38;18.50;;;1.10;99.90;;;;;;4976458;28;20076;-81
2022/01/11 09:48:28;;;;;;;34.70;18.17;;;1.20;99.90;;;;;;4977069;28;20077;-82
2022/01/11 09:50:54;;;;;;;36.67;18.13;;;1.80;99.90;;;;;;4993079;28;20026;-81
2022/01/11 09:53:20;;;;;;;35.92;17.67;;;2.80;99.90;;;;;;5002804;28;20111;-82
2022/01/11 09:55:46;;;;;;;35.35;17.20;;;3.20;99.90;;;;;;4992017;28;20049;-81
2022/01/11 09:58:13;;;;;;;34.58;16.38;;;1.20;99.90;;;;;;5008655;28;20454;-83
2022/01/11 10:00:40;;;;;;;34.42;16.98;;;1.10;99.90;;;;;;4973834;28;20037;-83
2022/01/11 10:03:07;;;;;;;30.05;15.38;;;1.80;99.90;;;;;;4974854;28;20049;-82
2022/01/11 10:05:35;;;;;;;34.28;15.68;;;1.20;99.90;;;;;;4960711;28;20037;-83
2022/01/11 10:08:21;;;;;;;29.67;14.50;;;1.30;99.90;;;;;;4976695;28;20034;-83
2022/01/11 10:10:48;;;;;;;29.17;14.63;;;1.30;99.90;;;;;;4992874;28;20033;-82
2022/01/11 10:13:40;;;;;;;28.08;14.95;;;1.30;99.90;;;;;;4980015;28;20491;-83
2022/01/11 10:16:23;;;;;;;34.17;15.73;;;1.30;99.90;;;;;;5007250;28;20045;-82
2022/01/11 10:18:49;;;;;;;33.10;16.10;;;1.40;99.90;;;;;;4992070;28;20045;-83
2022/01/11 10:21:33;;;;;;;28.23;14.75;;;1.40;99.90;;;;;;4992528;28;21942;-83
2022/01/11 10:24:00;;;;;;;26.52;13.88;;;2.30;99.90;;;;;;4995608;28;20512;-84
2022/01/11 10:26:45;;;;;;;28.77;14.55;;;1.40;99.90;;;;;;5011059;28;20041;-83
2022/01/11 10:29:40;;;;;;;27.73;14.57;;;1.40;99.90;;;;;;4978368;28;20109;-83
2022/01/11 10:32:22;;;;;;;26.77;13.60;;;1.40;99.90;;;;;;5001606;28;20081;-83
2022/01/11 10:34:56;;;;;;;26.77;13.85;;;1.40;99.90;;;;;;5010639;28;20038;-83
2022/01/11 10:37:28;;;;;;;26.92;14.10;;;1.40;99.90;;;;;;5007572;28;20064;-83
2022/01/11 10:40:01;;;;;;;25.13;13.43;;;1.40;99.90;;;;;;4993807;28;20044;-83
2022/01/11 10:42:33;;;;;;;26.17;13.98;;;1.40;99.90;;;;;;4995896;28;20041;-83
2022/01/11 10:45:15;;;;;;;23.33;12.88;;;0.20;99.90;;;;;;4995101;28;20059;-84
2022/01/11 10:47:47;;;;;;;26.35;14.00;;;2.20;99.90;;;;;;4994261;28;20041;-84
2022/01/11 10:50:27;;;;;;;24.33;12.88;;;2.70;99.90;;;;;;4994182;28;20128;-83
2022/01/11 10:52:53;;;;;;;25.05;14.00;;;1.70;99.90;;;;;;4995622;28;20597;-83
2022/01/11 10:55:21;;;;;;;26.50;14.07;;;1.60;99.90;;;;;;4991926;28;20076;-83
2022/01/11 10:57:56;;;;;;;25.20;14.00;;;1.50;99.90;;;;;;5013202;28;20037;-83
2022/01/11 11:00:34;;;;;;;23.95;13.07;;;1.60;99.90;;;;;;5011405;28;20041;-84
2022/01/11 11:03:27;;;;;;;28.13;14.75;;;1.70;99.90;;;;;;5005985;28;20041;-83
2022/01/11 11:05:58;;;;;;;26.88;12.98;;;1.70;99.90;;;;;;4993504;28;20038;-83
2022/01/11 11:08:34;;;;;;;26.02;12.75;;;1.80;99.90;;;;;;4994367;28;20533;-82
2022/01/11 11:11:15;;;;;;;24.10;12.98;;;1.90;99.90;;;;;;4979176;28;20038;-84
2022/01/11 11:13:51;;;;;;;23.58;12.43;;;1.90;99.90;;;;;;4989190;28;20037;-83
2022/01/11 11:16:20;;;;;;;24.63;13.50;;;2.10;99.90;;;;;;4977086;28;20037;-83
2022/01/11 11:18:56;;;;;;;24.67;13.10;;;2.20;99.90;;;;;;4993090;28;20037;-83
2022/01/11 11:21:36;;;;;;;22.45;13.35;;;3.30;99.90;;;;;;5008461;28;20104;-83
2022/01/11 11:24:14;;;;;;;23.40;12.40;;;2.30;99.90;;;;;;4990598;28;20475;-83
2022/01/11 11:26:48;;;;;;;24.77;13.18;;;3.70;99.90;;;;;;4996902;28;20301;-82
2022/01/11 11:29:14;;;;;;;24.17;13.43;;;2.30;99.90;;;;;;5006746;28;20475;-82
2022/01/11 11:31:41;;;;;;;22.85;12.40;;;;;;;;;;5005252;28;20117;-82
2022/01/11 11:34:09;;;;;;;22.23;11.98;;;2.30;99.90;;;;;;4988680;28;20228;-82
2022/01/11 11:36:37;;;;;;;23.73;12.55;;;2.40;99.90;;;;;;4989275;28;20052;-82
2022/01/11 11:39:06;;;;;;;23.13;13.07;;;2.40;99.90;;;;;;4974217;28;20121;-82
2022/01/11 11:41:36;;;;;;;22.40;13.10;;;2.40;99.90;;;;;;5003357;28;20041;-82
2022/01/11 11:44:09;;;;;;;21.70;12.32;;;2.50;99.90;;;;;;4990833;28;20065;-83
2022/01/11 11:47:05;;;;;;;22.48;12.65;;;3.50;99.90;;;;;;5007127;28;20048;-82
2022/01/11 11:49:43;;;;;;;22.67;12.02;;;2.60;99.90;;;;;;4978448;28;20049;-82
2022/01/11 11:52:28;;;;;;;23.90;13.02;;;2.70;99.90;;;;;;4989343;28;20074;-83
2022/01/11 11:55:08;;;;;;;21.52;12.40;;;2.70;99.90;;;;;;5006849;28;20034;-82
2022/01/11 11:57:37;;;;;;;21.65;12.48;;;2.80;99.90;;;;;;4988073;28;20033;-82
2022/01/11 12:00:18;;;;;;;23.98;13.30;;;2.90;99.90;;;;;;5006366;28;20343;-82
2022/01/11 12:02:52;;;;;;;27.77;13.20;;;3.00;99.90;;;;;;4990078;28;20073;-82
2022/01/11 12:05:33;;;;;;;29.10;12.82;;;3.10;99.90;;;;;;5006016;28;20506;-82
2022/01/11 12:08:19;;;;;;;20.90;12.00;;;4.00;99.90;;;;;;5005554;28;20073;-82
2022/01/11 12:10:52;;;;;;;21.30;12.13;;;3.10;99.90;;;;;;4979043;28;20048;-82
2022/01/11 12:13:39;;;;;;;22.35;11.88;;;4.30;99.90;;;;;;5004788;28;20053;-83
2022/01/11 12:16:30;;;;;;;22.10;11.65;;;3.10;99.90;;;;;;5002646;28;20065;-84
2022/01/11 12:19:02;;;;;;;21.15;11.85;;;4.10;99.90;;;;;;4995784;28;20042;-84
2022/01/11 12:21:52;;;;;;;23.27;12.27;;;3.10;99.90;;;;;;4990257;28;20137;-83
2022/01/11 12:24:34;;;;;;;25.73;12.65;;;3.10;99.90;;;;;;5004908;28;20173;-83
2022/01/11 12:27:00;;;;;;;23.00;12.45;;;3.10;99.90;;;;;;5006765;28;20042;-83
2022/01/11 12:29:27;;;;;;;22.77;12.20;;;3.00;99.90;;;;;;4972681;28;20053;-83
2022/01/11 12:31:55;;;;;;;24.33;13.07;;;4.20;99.90;;;;;;4973514;28;20041;-82
2022/01/11 12:34:46;;;;;;;23.58;12.73;;;3.00;99.90;;;;;;4986227;28;20813;-84
2022/01/11 12:37:26;;;;;;;23.52;12.90;;;3.00;99.90;;;;;;5006217;28;20069;-84
2022/01/11 12:40:13;;;;;;;20.20;10.75;;;3.00;99.90;;;;;;4989717;28;20038;-83
2022/01/11 12:42:52;;;;;;;21.48;11.80;;;3.00;99.90;;;;;;4993066;28;20558;-83
2022/01/11 12:45:38;;;;;;;22.13;12.23;;;3.00;99.90;;;;;;5009130;28;20042;-83
2022/01/11 12:48:05;;;;;;;22.83;12.43;;;3.00;99.90;;;;;;4993351;28;20037;-83